PKO YSCB-YSCN

Flight info

Callsign PKO
Flight time 0h 43m
Altitude 7000
Route AKMIR W113 ODALE
Aircraft SR22/L-SDGRY/S

Departure

Time 2026-05-04 09:02
Airport Canberra Airport (YSCB)

Arrival

Time 2026-05-04 09:46
Airport Camden Airport (YSCN)
Time Latitude Longitude Altitude Speed Heading
2026-05-04 08:38 -35.30340 149.18590 1852 ft 0 kts 300°
2026-05-04 08:57 -35.30324 149.18675 1853 ft 8 kts 54°
2026-05-04 09:01 -35.30738 149.19435 1869 ft 16 kts 172°
2026-05-04 09:01 -35.30876 149.19433 1870 ft 20 kts 181°
2026-05-04 09:01 -35.30949 149.19439 1870 ft 5 kts 52°
2026-05-04 09:01 -35.30850 149.19441 1870 ft 41 kts 357°
2026-05-04 09:02 -35.30365 149.19460 1948 ft 86 kts
2026-05-04 09:02 -35.29784 149.19474 2324 ft 84 kts 353°
2026-05-04 09:02 -35.29137 149.19468 2548 ft 101 kts
2026-05-04 09:02 -35.28440 149.19551 2935 ft 102 kts
2026-05-04 09:03 -35.27738 149.19647 3303 ft 102 kts 360°
2026-05-04 09:03 -35.27047 149.19857 3679 ft 109 kts 23°
2026-05-04 09:03 -35.26431 149.20410 4034 ft 111 kts 26°
2026-05-04 09:03 -35.25807 149.20968 4374 ft 112 kts 25°
2026-05-04 09:04 -35.25172 149.21527 4715 ft 112 kts 23°
2026-05-04 09:04 -35.24538 149.22078 5047 ft 113 kts 22°
2026-05-04 09:04 -35.23901 149.22630 5380 ft 113 kts 21°
2026-05-04 09:04 -35.23265 149.23180 5702 ft 112 kts 20°
2026-05-04 09:05 -35.22622 149.23733 6018 ft 113 kts 19°
2026-05-04 09:05 -35.21982 149.24285 6319 ft 114 kts 19°
2026-05-04 09:05 -35.21335 149.24842 6632 ft 113 kts 17°
2026-05-04 09:05 -35.20701 149.25389 6927 ft 113 kts 17°
2026-05-04 09:06 -35.20001 149.25986 6998 ft 132 kts 20°
2026-05-04 09:07 -35.13444 149.31635 6974 ft 174 kts 26°
2026-05-04 09:08 -35.12591 149.32725 6966 ft 173 kts 28°
2026-05-04 09:08 -35.11576 149.33389 6973 ft 165 kts 17°
2026-05-04 09:08 -35.10575 149.34108 6969 ft 168 kts 21°
2026-05-04 09:08 -35.09588 149.34892 6966 ft 168 kts 22°
2026-05-04 09:09 -35.08613 149.35692 6968 ft 169 kts 23°
2026-05-04 09:09 -35.07641 149.36501 6971 ft 169 kts 23°
2026-05-04 09:09 -35.06667 149.37314 6968 ft 169 kts 24°
2026-05-04 09:09 -35.05697 149.38125 6968 ft 168 kts 23°
2026-05-04 09:10 -35.04728 149.38935 6969 ft 168 kts 23°
2026-05-04 09:10 -35.03759 149.39745 6966 ft 168 kts 24°
2026-05-04 09:10 -35.02793 149.40553 6967 ft 168 kts 23°
2026-05-04 09:10 -35.01823 149.41364 6963 ft 168 kts 23°
2026-05-04 09:11 -35.00858 149.42171 6965 ft 168 kts 23°
2026-05-04 09:11 -34.99889 149.42980 6966 ft 168 kts 24°
2026-05-04 09:11 -34.98924 149.43786 6966 ft 168 kts 24°
2026-05-04 09:11 -34.97955 149.44595 6969 ft 168 kts 23°
2026-05-04 09:12 -34.96989 149.45401 6965 ft 168 kts 23°
2026-05-04 09:12 -34.96021 149.46208 6963 ft 168 kts 23°
2026-05-04 09:14 -34.89322 149.51791 6975 ft 167 kts 24°
2026-05-04 09:14 -34.88352 149.52598 6977 ft 168 kts 24°
2026-05-04 09:14 -34.87384 149.53402 6976 ft 168 kts 24°
2026-05-04 09:14 -34.86413 149.54209 6980 ft 168 kts 23°
2026-05-04 09:15 -34.85444 149.55015 6979 ft 168 kts 24°
2026-05-04 09:15 -34.84472 149.55823 6981 ft 168 kts 24°
2026-05-04 09:15 -34.83508 149.56624 6981 ft 168 kts 24°
2026-05-04 09:15 -34.82540 149.57430 6984 ft 167 kts 24°
2026-05-04 09:17 -34.75426 149.59345 6985 ft 166 kts 22°
2026-05-04 09:18 -34.74462 149.60135 6988 ft 167 kts 24°
2026-05-04 09:18 -34.73510 149.60946 6991 ft 167 kts 24°
2026-05-04 09:18 -34.72559 149.61772 6991 ft 168 kts 25°
2026-05-04 09:18 -34.71612 149.62608 6992 ft 168 kts 25°
2026-05-04 09:19 -34.70666 149.63449 6991 ft 168 kts 26°
2026-05-04 09:19 -34.69721 149.64294 6988 ft 169 kts 26°
2026-05-04 09:19 -34.68779 149.65139 6989 ft 168 kts 25°
2026-05-04 09:19 -34.67833 149.65988 6985 ft 168 kts 25°
2026-05-04 09:20 -34.66892 149.66834 6986 ft 168 kts 26°
2026-05-04 09:20 -34.65951 149.67682 6988 ft 167 kts 25°
2026-05-04 09:20 -34.65016 149.68523 6984 ft 167 kts 25°
2026-05-04 09:20 -34.64080 149.69365 6988 ft 166 kts 25°
2026-05-04 09:21 -34.63152 149.70201 6990 ft 165 kts 25°
2026-05-04 09:21 -34.62225 149.71034 6996 ft 165 kts 25°
2026-05-04 09:21 -34.61297 149.71868 6997 ft 166 kts 25°
2026-05-04 09:21 -34.60368 149.72704 6999 ft 166 kts 25°
2026-05-04 09:22 -34.59437 149.73540 6992 ft 166 kts 25°
2026-05-04 09:22 -34.58507 149.74376 6993 ft 166 kts 25°
2026-05-04 09:22 -34.57572 149.75214 6996 ft 166 kts 25°
2026-05-04 09:22 -34.56641 149.76050 6999 ft 166 kts 25°
2026-05-04 09:23 -34.55704 149.76892 7001 ft 167 kts 25°
2026-05-04 09:23 -34.54771 149.77729 6998 ft 167 kts 25°
2026-05-04 09:23 -34.53833 149.78570 6999 ft 166 kts 25°
2026-05-04 09:23 -34.52900 149.79407 6998 ft 166 kts 25°
2026-05-04 09:25 -34.46405 149.85226 7003 ft 165 kts 25°
2026-05-04 09:25 -34.45473 149.86060 7005 ft 165 kts 25°
2026-05-04 09:26 -34.44544 149.86891 7005 ft 165 kts 25°
2026-05-04 09:26 -34.43617 149.87719 7002 ft 166 kts 25°
2026-05-04 09:26 -34.42689 149.88549 7003 ft 165 kts 25°
2026-05-04 09:26 -34.41763 149.89376 7004 ft 165 kts 24°
2026-05-04 09:27 -34.40834 149.90205 7004 ft 165 kts 25°
2026-05-04 09:27 -34.39909 149.91033 7003 ft 166 kts 25°
2026-05-04 09:27 -34.38975 149.91867 6998 ft 166 kts 25°
2026-05-04 09:27 -34.38045 149.92697 7002 ft 165 kts 25°
2026-05-04 09:28 -34.37115 149.93526 7003 ft 166 kts 25°
2026-05-04 09:28 -34.36186 149.94355 7002 ft 166 kts 25°
2026-05-04 09:28 -34.35302 149.95145 7001 ft 166 kts 25°
2026-05-04 09:28 -34.34375 149.95972 7005 ft 165 kts 25°
2026-05-04 09:29 -34.33448 149.96798 7007 ft 165 kts 25°
2026-05-04 09:29 -34.32519 149.97626 7005 ft 165 kts 25°
2026-05-04 09:29 -34.31596 149.98449 7003 ft 165 kts 25°
2026-05-04 09:29 -34.30670 149.99273 7007 ft 164 kts 25°
2026-05-04 09:30 -34.29753 150.00090 7025 ft 163 kts 25°
2026-05-04 09:30 -34.28839 150.00906 7025 ft 163 kts 25°
2026-05-04 09:30 -34.27921 150.01722 7029 ft 163 kts 24°
2026-05-04 09:30 -34.27004 150.02538 7031 ft 164 kts 24°
2026-05-04 09:31 -34.26081 150.03358 7032 ft 164 kts 25°
2026-05-04 09:31 -34.25158 150.04180 7027 ft 165 kts 25°
2026-05-04 09:31 -34.24234 150.05001 7030 ft 165 kts 25°
2026-05-04 09:31 -34.23310 150.05823 7031 ft 165 kts 25°
2026-05-04 09:32 -34.22385 150.06644 7035 ft 165 kts 25°
2026-05-04 09:32 -34.21459 150.07467 7033 ft 165 kts 25°
2026-05-04 09:34 -34.16860 150.15327 7022 ft 181 kts 65°
2026-05-04 09:34 -34.16534 150.16791 7026 ft 180 kts 64°
2026-05-04 09:34 -34.16413 150.18307 7021 ft 181 kts 82°
2026-05-04 09:34 -34.16426 150.19809 7019 ft 177 kts 82°
2026-05-04 09:35 -34.16456 150.21279 7018 ft 174 kts 82°
2026-05-04 09:35 -34.16491 150.22730 7018 ft 172 kts 83°
2026-05-04 09:35 -34.16527 150.24168 7014 ft 171 kts 83°
2026-05-04 09:35 -34.16564 150.25597 7013 ft 171 kts 83°
2026-05-04 09:37 -34.16832 150.36216 6218 ft 199 kts 85°
2026-05-04 09:37 -34.16875 150.37908 5938 ft 205 kts 85°
2026-05-04 09:38 -34.16918 150.39638 5646 ft 208 kts 86°
2026-05-04 09:38 -34.16731 150.41305 5463 ft 192 kts 59°
2026-05-04 09:38 -34.16147 150.42727 5254 ft 187 kts 54°
2026-05-04 09:38 -34.15524 150.44084 5035 ft 184 kts 53°
2026-05-04 09:39 -34.14895 150.45411 4817 ft 181 kts 53°
2026-05-04 09:39 -34.14266 150.46725 4603 ft 179 kts 53°
2026-05-04 09:39 -34.13667 150.47975 4388 ft 170 kts 53°
2026-05-04 09:39 -34.13074 150.49207 4187 ft 170 kts 53°
2026-05-04 09:40 -34.12472 150.50455 3950 ft 174 kts 54°
2026-05-04 09:40 -34.11860 150.51727 3687 ft 177 kts 54°
2026-05-04 09:40 -34.11240 150.53016 3415 ft 179 kts 55°
2026-05-04 09:40 -34.10607 150.54328 3145 ft 183 kts 55°
2026-05-04 09:41 -34.09997 150.55597 2868 ft 164 kts 54°
2026-05-04 09:42 -34.06830 150.62165 1530 ft 99 kts 51°
2026-05-04 09:43 -34.06484 150.62883 1369 ft 98 kts 52°
2026-05-04 09:43 -34.06151 150.63582 1220 ft 94 kts 53°
2026-05-04 09:43 -34.05812 150.64242 1092 ft 88 kts 51°
2026-05-04 09:43 -34.05467 150.64846 949 ft 88 kts 49°
2026-05-04 09:44 -34.05119 150.65446 812 ft 87 kts 55°
2026-05-04 09:44 -34.04841 150.66089 694 ft 85 kts 57°
2026-05-04 09:44 -34.04587 150.66722 540 ft 82 kts 59°
2026-05-04 09:46 -34.03986 150.68715 231 ft 9 kts 168°
2026-05-04 09:46 -34.04007 150.68711 232 ft 1 kts